Time;durP1;ratioP1;P1;durP2;ratioP2;P2;SDS_P1;SDS_P2;PMS_P1;PMS_P2;Temp;Humidity;BMP_temperature;BMP_pressure;BME280_temperature;BME280_humidity;BME280_pressure;Samples;Min_cycle;Max_cycle;Signal;HPM_P1;HPM_P2
2023/11/14 00:01:54;;;;;;;7.70;2.00;;;16.80;67.50;;;;;;5004589;28;20437;-54
2023/11/14 00:04:20;;;;;;;4.83;2.00;;;16.80;66.60;;;;;;5008796;28;20178;-51
2023/11/14 00:06:46;;;;;;;9.10;2.60;;;16.80;66.80;;;;;;4994953;28;21009;-53
2023/11/14 00:09:13;;;;;;;6.50;2.30;;;16.70;66.00;;;;;;5005420;28;20615;-54
2023/11/14 00:11:38;;;;;;;8.00;2.57;;;16.50;65.60;;;;;;4999364;28;20230;-54
2023/11/14 00:14:04;;;;;;;4.80;1.80;;;16.20;66.00;;;;;;4997467;28;20527;-53
2023/11/14 00:16:31;;;;;;;3.23;1.30;;;16.20;65.50;;;;;;5005376;28;20697;-54
2023/11/14 00:18:57;;;;;;;8.10;2.07;;;16.30;65.70;;;;;;5007026;28;20452;-52
2023/11/14 00:21:23;;;;;;;6.63;2.40;;;16.20;64.90;;;;;;4988128;28;20787;-52
2023/11/14 00:23:49;;;;;;;11.17;3.20;;;16.20;64.80;;;;;;5005417;28;20433;-52
2023/11/14 00:26:15;;;;;;;10.03;1.97;;;16.40;64.60;;;;;;5006881;28;20669;-52
2023/11/14 00:28:41;;;;;;;9.30;2.03;;;16.50;63.90;;;;;;5007910;28;20590;-56
2023/11/14 00:31:07;;;;;;;6.03;2.63;;;16.60;63.70;;;;;;5006190;28;20248;-54
2023/11/14 00:33:33;;;;;;;6.60;2.40;;;16.70;63.10;;;;;;5001377;28;20439;-52
2023/11/14 00:35:59;;;;;;;9.93;2.60;;;16.60;62.80;;;;;;5001944;28;20523;-54
2023/11/14 00:38:25;;;;;;;8.33;2.23;;;16.50;62.50;;;;;;5005726;28;20834;-48
2023/11/14 00:40:50;;;;;;;9.93;2.43;;;16.70;62.40;;;;;;5003616;28;20444;-54
2023/11/14 00:43:16;;;;;;;7.53;2.70;;;16.80;61.00;;;;;;4997992;28;20213;-54
2023/11/14 00:45:42;;;;;;;7.30;3.10;;;16.90;60.70;;;;;;4994424;28;20194;-49
2023/11/14 00:48:07;;;;;;;6.90;2.10;;;16.80;60.20;;;;;;5005434;28;20182;-55
2023/11/14 00:50:33;;;;;;;6.87;2.60;;;16.80;59.90;;;;;;5006463;28;20256;-54
2023/11/14 00:52:58;;;;;;;7.13;1.97;;;16.80;59.80;;;;;;5001038;28;20194;-54
2023/11/14 00:55:24;;;;;;;5.30;1.97;;;16.90;59.80;;;;;;5000544;28;20261;-51
2023/11/14 00:57:49;;;;;;;6.60;2.90;;;16.90;59.50;;;;;;5005885;28;20245;-55
2023/11/14 01:00:17;;;;;;;9.90;2.53;;;17.00;59.40;;;;;;5003770;28;20214;-51
2023/11/14 01:02:43;;;;;;;4.10;2.00;;;16.90;59.70;;;;;;5001754;28;20236;-54
2023/11/14 01:05:08;;;;;;;9.20;2.90;;;16.80;59.20;;;;;;5003746;28;20953;-53
2023/11/14 01:07:35;;;;;;;6.40;2.73;;;16.80;59.30;;;;;;4995640;28;20189;-56
2023/11/14 01:10:00;;;;;;;9.73;2.83;;;16.90;59.20;;;;;;4997370;28;20217;-55
2023/11/14 01:12:27;;;;;;;7.60;2.27;;;16.70;59.00;;;;;;4996325;28;21012;-52
2023/11/14 01:14:52;;;;;;;13.60;2.50;;;16.40;59.60;;;;;;5001725;28;20213;-52
2023/11/14 01:17:18;;;;;;;6.90;1.53;;;16.30;60.00;;;;;;5002205;28;21005;-50
2023/11/14 01:19:44;;;;;;;9.50;3.20;;;16.60;59.60;;;;;;5001028;28;20209;-53
2023/11/14 01:22:11;;;;;;;7.00;1.80;;;16.60;59.40;;;;;;5005283;28;20537;-49
2023/11/14 01:24:37;;;;;;;7.33;2.00;;;16.80;59.20;;;;;;5003558;28;20457;-49
2023/11/14 01:27:02;;;;;;;7.53;2.47;;;16.90;59.00;;;;;;5001987;28;20440;-53
2023/11/14 01:29:28;;;;;;;7.70;2.20;;;16.90;59.00;;;;;;5001636;28;20477;-54
2023/11/14 01:31:54;;;;;;;9.23;2.17;;;16.90;59.40;;;;;;5004993;28;20268;-51
2023/11/14 01:34:19;;;;;;;4.63;2.00;;;16.60;59.70;;;;;;5001487;28;20190;-53
2023/11/14 01:36:45;;;;;;;11.87;2.27;;;16.60;60.00;;;;;;5001945;28;20304;-54
2023/11/14 01:39:10;;;;;;;5.27;2.30;;;16.60;59.90;;;;;;5004314;28;20213;-50
2023/11/14 01:41:36;;;;;;;7.97;2.17;;;16.50;59.40;;;;;;5003650;28;20197;-48
2023/11/14 01:44:02;;;;;;;8.30;2.27;;;16.40;60.20;;;;;;5008168;28;20186;-51
2023/11/14 01:46:29;;;;;;;5.67;1.70;;;16.40;60.40;;;;;;4995949;28;20329;-52
2023/11/14 01:48:55;;;;;;;12.50;2.50;;;16.50;60.40;;;;;;5008849;28;20433;-49
2023/11/14 01:51:23;;;;;;;4.40;2.03;;;16.50;59.80;;;;;;5006978;28;20416;-49
2023/11/14 01:53:50;;;;;;;2.70;1.50;;;16.60;59.70;;;;;;4997243;28;20437;-51
2023/11/14 01:56:16;;;;;;;7.10;1.63;;;16.60;59.50;;;;;;4999678;28;20487;-55
2023/11/14 01:58:42;;;;;;;4.90;1.87;;;16.60;59.40;;;;;;4984446;28;21022;-52
2023/11/14 02:01:08;;;;;;;6.53;2.30;;;16.50;59.40;;;;;;5000169;28;20579;-54
2023/11/14 02:03:35;;;;;;;8.47;2.40;;;16.40;59.70;;;;;;4998728;28;20906;-55
2023/11/14 02:06:01;;;;;;;6.03;2.00;;;16.20;59.80;;;;;;5002204;28;20536;-50
2023/11/14 02:08:30;;;;;;;6.67;2.10;;;16.40;59.90;;;;;;5002460;28;20452;-50
2023/11/14 02:10:56;;;;;;;6.40;2.17;;;16.50;59.80;;;;;;5005900;28;20429;-52
2023/11/14 02:13:22;;;;;;;8.20;2.23;;;16.50;59.70;;;;;;5006180;28;20444;-54
2023/11/14 02:15:48;;;;;;;6.87;2.07;;;16.60;59.70;;;;;;5009174;28;20891;-57
2023/11/14 02:18:17;;;;;;;5.83;1.73;;;16.60;59.60;;;;;;5008151;28;20186;-57
2023/11/14 02:20:43;;;;;;;5.53;1.60;;;16.40;60.00;;;;;;5006358;28;20251;-50
2023/11/14 02:23:11;;;;;;;10.03;2.43;;;16.50;59.80;;;;;;5006736;28;20948;-53
2023/11/14 02:25:37;;;;;;;4.53;2.10;;;16.60;59.70;;;;;;5010088;28;20280;-51
2023/11/14 02:28:02;;;;;;;14.63;2.20;;;16.60;59.80;;;;;;5008425;28;20936;-52
2023/11/14 02:30:28;;;;;;;10.03;2.87;;;16.60;59.80;;;;;;5007774;28;20443;-55
2023/11/14 02:32:54;;;;;;;10.60;2.70;;;16.50;59.90;;;;;;5009143;28;20186;-52
2023/11/14 02:35:19;;;;;;;6.20;2.50;;;16.60;59.80;;;;;;5007202;28;20224;-52
2023/11/14 02:37:46;;;;;;;9.93;2.37;;;16.60;59.70;;;;;;5007653;28;20220;-49
2023/11/14 02:40:13;;;;;;;12.67;2.00;;;16.50;59.90;;;;;;5008516;28;20296;-51
2023/11/14 02:42:41;;;;;;;4.40;2.17;;;16.60;60.00;;;;;;5007105;28;20494;-54
2023/11/14 02:45:07;;;;;;;5.80;2.20;;;16.60;60.00;;;;;;5009724;28;20527;-52
2023/11/14 02:47:33;;;;;;;10.47;2.17;;;16.40;60.00;;;;;;5007466;28;20444;-53
2023/11/14 02:50:26;;;;;;;9.60;2.23;;;16.40;60.50;;;;;;4998318;28;20463;-53
2023/11/14 02:52:51;;;;;;;7.73;1.93;;;16.60;60.20;;;;;;5007553;28;20194;-51
2023/11/14 02:55:17;;;;;;;11.53;2.83;;;16.60;60.00;;;;;;5009519;28;20500;-53
2023/11/14 02:57:42;;;;;;;12.63;4.40;;;16.60;59.90;;;;;;5007788;28;20305;-51
2023/11/14 03:00:09;;;;;;;7.33;2.50;;;16.40;59.90;;;;;;5008178;28;20202;-55
2023/11/14 03:02:34;;;;;;;8.30;2.00;;;16.40;60.00;;;;;;5007596;28;20193;-51
2023/11/14 03:05:00;;;;;;;11.17;2.50;;;16.30;60.70;;;;;;5006923;28;20826;-55
2023/11/14 03:07:25;;;;;;;9.13;2.30;;;16.40;60.70;;;;;;5007409;28;20190;-50
2023/11/14 03:09:51;;;;;;;4.73;1.80;;;16.30;60.50;;;;;;5008520;28;20292;-50
2023/11/14 03:12:17;;;;;;;10.30;2.10;;;16.30;60.60;;;;;;5004709;28;20182;-54
2023/11/14 03:14:42;;;;;;;7.93;2.30;;;16.40;60.70;;;;;;5008235;28;20248;-53
2023/11/14 03:17:08;;;;;;;8.33;2.03;;;16.40;60.70;;;;;;5009330;28;20233;-52
2023/11/14 03:19:38;;;;;;;9.47;3.07;;;16.40;60.80;;;;;;5008968;28;20221;-48
2023/11/14 03:22:04;;;;;;;8.13;2.30;;;16.30;60.90;;;;;;5009422;28;20536;-54
2023/11/14 03:24:29;;;;;;;7.60;2.87;;;16.30;60.80;;;;;;5005608;28;20524;-53
2023/11/14 03:26:55;;;;;;;8.63;2.50;;;16.40;60.90;;;;;;5006746;28;20209;-52
2023/11/14 03:29:20;;;;;;;8.73;2.03;;;16.30;61.20;;;;;;5004751;28;20237;-50
2023/11/14 03:31:46;;;;;;;7.40;1.73;;;16.00;61.40;;;;;;5008342;28;20252;-55
2023/11/14 03:34:11;;;;;;;3.67;2.23;;;15.90;62.50;;;;;;5004393;28;20193;-51
2023/11/14 03:36:37;;;;;;;6.70;2.30;;;16.00;62.10;;;;;;4991234;28;20222;-54
2023/11/14 03:39:03;;;;;;;6.83;2.30;;;16.00;62.10;;;;;;5000204;28;20214;-55
2023/11/14 03:41:28;;;;;;;7.90;2.60;;;16.10;62.20;;;;;;4995537;28;20190;-54
2023/11/14 03:43:54;;;;;;;15.53;2.83;;;16.30;61.90;;;;;;4992087;28;20847;-50
2023/11/14 03:46:20;;;;;;;14.47;2.87;;;16.30;61.70;;;;;;4990097;28;20351;-54
2023/11/14 03:48:45;;;;;;;11.50;2.10;;;16.40;61.60;;;;;;4990061;28;20969;-51
2023/11/14 03:51:11;;;;;;;4.60;2.30;;;16.30;61.50;;;;;;4992685;28;20197;-57
2023/11/14 03:53:37;;;;;;;3.47;2.00;;;16.30;61.80;;;;;;4992907;28;20199;-52
2023/11/14 03:56:04;;;;;;;8.53;2.90;;;16.40;61.40;;;;;;5000448;28;20304;-51
2023/11/14 03:58:31;;;;;;;5.23;2.40;;;16.50;61.00;;;;;;5002986;28;20510;-51
2023/11/14 04:00:56;;;;;;;7.23;2.83;;;16.60;60.90;;;;;;5000058;28;21119;-53
2023/11/14 04:03:22;;;;;;;9.10;2.30;;;16.60;60.60;;;;;;5005537;28;20520;-51
2023/11/14 04:05:47;;;;;;;7.43;2.20;;;16.60;61.80;;;;;;5008271;28;20216;-51
2023/11/14 04:08:13;;;;;;;6.50;2.40;;;16.60;61.10;;;;;;5007959;28;20642;-51
2023/11/14 04:10:38;;;;;;;5.30;2.23;;;16.50;61.10;;;;;;5002157;28;20297;-50
2023/11/14 04:13:04;;;;;;;7.90;2.10;;;16.40;61.50;;;;;;5007728;28;20182;-48
2023/11/14 04:15:31;;;;;;;7.40;2.60;;;16.50;61.50;;;;;;5008568;28;20552;-53
2023/11/14 04:17:56;;;;;;;8.93;2.83;;;16.60;61.30;;;;;;5005894;28;20639;-50
2023/11/14 04:20:22;;;;;;;7.87;2.30;;;16.50;61.30;;;;;;5006119;28;20483;-51
2023/11/14 04:22:47;;;;;;;8.20;2.60;;;16.50;61.00;;;;;;5008352;28;20190;-53
2023/11/14 04:25:13;;;;;;;13.10;2.63;;;16.60;61.00;;;;;;5009549;28;20277;-50
2023/11/14 04:27:39;;;;;;;7.50;3.03;;;16.60;61.00;;;;;;5004893;28;20923;-50
2023/11/14 04:30:05;;;;;;;11.57;3.40;;;16.60;60.80;;;;;;5001914;28;20210;-51
2023/11/14 04:32:31;;;;;;;8.40;3.53;;;16.70;60.50;;;;;;5004346;28;20209;-51
2023/11/14 04:34:56;;;;;;;8.20;2.90;;;16.80;60.50;;;;;;5005250;28;21002;-54
2023/11/14 04:37:22;;;;;;;8.03;3.07;;;16.80;60.40;;;;;;5007490;28;20309;-51
2023/11/14 04:39:47;;;;;;;7.53;2.43;;;16.80;60.40;;;;;;5007716;28;20202;-53
2023/11/14 04:42:13;;;;;;;5.33;2.50;;;16.80;60.50;;;;;;5007840;28;20237;-49
2023/11/14 04:44:38;;;;;;;12.97;3.00;;;16.80;60.70;;;;;;5004502;28;20194;-51
2023/11/14 04:47:06;;;;;;;6.10;2.20;;;16.80;60.70;;;;;;4993006;28;20256;-49
2023/11/14 04:49:31;;;;;;;4.27;2.57;;;16.70;60.70;;;;;;4990551;28;20269;-55
2023/11/14 04:51:57;;;;;;;8.77;2.20;;;16.70;60.70;;;;;;4998158;28;20548;-55
2023/11/14 04:54:22;;;;;;;8.13;2.10;;;16.70;60.60;;;;;;5002273;28;20186;-50
2023/11/14 04:56:48;;;;;;;8.47;2.70;;;16.70;60.50;;;;;;5005198;28;20222;-51
2023/11/14 04:59:13;;;;;;;7.13;2.47;;;16.70;60.70;;;;;;5004295;28;20256;-50
2023/11/14 05:01:39;;;;;;;3.17;1.67;;;16.60;60.60;;;;;;5003436;28;20189;-49
2023/11/14 05:04:05;;;;;;;7.10;2.33;;;16.60;60.60;;;;;;5004915;28;20182;-52
2023/11/14 05:06:33;;;;;;;4.00;1.60;;;16.60;60.70;;;;;;5002802;28;20243;-52
2023/11/14 05:08:59;;;;;;;7.70;2.60;;;16.50;60.70;;;;;;4996129;28;20292;-52
2023/11/14 05:11:25;;;;;;;5.60;1.60;;;16.60;60.80;;;;;;5001830;28;20440;-50
2023/11/14 05:13:50;;;;;;;7.07;2.10;;;16.60;60.70;;;;;;5007982;28;20206;-50
2023/11/14 05:16:16;;;;;;;5.07;2.40;;;16.50;60.60;;;;;;4999028;28;20218;-50
2023/11/14 05:18:43;;;;;;;7.73;1.83;;;16.40;61.00;;;;;;5006254;28;20198;-50
2023/11/14 05:21:08;;;;;;;5.73;3.50;;;16.50;61.20;;;;;;5002408;28;20201;-52
2023/11/14 05:23:34;;;;;;;7.97;2.27;;;16.40;61.20;;;;;;5007935;28;20449;-52
2023/11/14 05:25:59;;;;;;;8.07;2.07;;;16.40;61.00;;;;;;5005684;28;20201;-51
2023/11/14 05:28:25;;;;;;;9.40;2.40;;;16.40;61.00;;;;;;5005682;28;20241;-50
2023/11/14 05:30:50;;;;;;;8.07;2.60;;;16.40;61.10;;;;;;5000478;28;20575;-51
2023/11/14 05:33:16;;;;;;;7.40;3.03;;;16.40;61.10;;;;;;5003985;28;20753;-54
2023/11/14 05:35:42;;;;;;;5.33;2.80;;;16.50;61.10;;;;;;5004709;28;20276;-51
2023/11/14 05:38:07;;;;;;;6.20;2.70;;;16.40;61.30;;;;;;4995326;28;20288;-49
2023/11/14 05:40:33;;;;;;;9.43;2.40;;;16.30;61.30;;;;;;5002674;28;20198;-49
2023/11/14 05:42:58;;;;;;;4.80;2.17;;;16.30;61.20;;;;;;4999032;28;20210;-53
2023/11/14 05:45:24;;;;;;;7.63;2.23;;;16.30;61.10;;;;;;5000037;28;20198;-54
2023/11/14 05:47:49;;;;;;;4.80;2.10;;;16.20;61.20;;;;;;4992655;28;20193;-51
2023/11/14 05:50:15;;;;;;;6.90;2.33;;;16.20;61.00;;;;;;4993325;28;20243;-49
2023/11/14 05:52:41;;;;;;;9.27;3.00;;;16.00;61.60;;;;;;5004585;28;20194;-53
2023/11/14 05:55:07;;;;;;;7.73;2.97;;;16.10;61.70;;;;;;4990288;28;20456;-55
2023/11/14 05:57:33;;;;;;;6.47;2.80;;;16.10;61.80;;;;;;4989551;28;20233;-50
2023/11/14 05:59:59;;;;;;;8.30;2.10;;;16.10;62.00;;;;;;4990580;28;20463;-52
2023/11/14 06:02:24;;;;;;;7.10;2.00;;;16.20;62.00;;;;;;4989930;28;20719;-54
2023/11/14 06:04:50;;;;;;;6.67;2.97;;;16.20;61.90;;;;;;4989151;28;21047;-50
2023/11/14 06:07:16;;;;;;;4.43;2.37;;;16.10;62.00;;;;;;5004895;28;20201;-49
2023/11/14 06:09:41;;;;;;;8.43;2.57;;;16.10;62.00;;;;;;5006349;28;20216;-52
2023/11/14 06:12:07;;;;;;;11.00;2.80;;;16.10;61.90;;;;;;5005992;28;20189;-49
2023/11/14 06:14:33;;;;;;;6.33;2.23;;;16.00;62.00;;;;;;5004872;28;20205;-52
2023/11/14 06:16:58;;;;;;;9.40;2.57;;;16.00;61.70;;;;;;5001773;28;20225;-49
2023/11/14 06:19:24;;;;;;;8.23;2.43;;;16.10;61.50;;;;;;5004119;28;20197;-48
2023/11/14 06:21:50;;;;;;;6.63;2.50;;;16.10;61.00;;;;;;5005498;28;20216;-50
2023/11/14 06:24:16;;;;;;;5.47;2.10;;;16.10;61.00;;;;;;5006224;28;20460;-49
2023/11/14 06:26:41;;;;;;;5.90;2.40;;;16.20;60.80;;;;;;5004428;28;20732;-49
2023/11/14 06:29:07;;;;;;;8.57;2.67;;;16.20;60.20;;;;;;5005012;28;20305;-48
2023/11/14 06:31:32;;;;;;;7.87;3.63;;;16.30;60.20;;;;;;5005174;28;20190;-53
2023/11/14 06:33:58;;;;;;;5.83;2.30;;;16.40;60.00;;;;;;5005489;28;20583;-50
2023/11/14 06:36:23;;;;;;;4.83;3.37;;;16.50;59.90;;;;;;5005322;28;20217;-50
2023/11/14 06:38:49;;;;;;;6.50;2.57;;;16.60;59.80;;;;;;5007556;28;20204;-52
2023/11/14 06:41:15;;;;;;;5.53;2.80;;;16.70;59.70;;;;;;5006225;28;20269;-49
2023/11/14 06:43:40;;;;;;;4.90;2.20;;;16.70;59.20;;;;;;4999335;28;20205;-49
2023/11/14 06:46:06;;;;;;;5.10;2.50;;;16.80;59.10;;;;;;4990475;28;20445;-52
2023/11/14 06:48:32;;;;;;;15.17;3.47;;;16.80;59.10;;;;;;5002278;28;20268;-49
2023/11/14 06:50:58;;;;;;;7.40;2.20;;;17.00;59.50;;;;;;5002205;28;20189;-51
2023/11/14 06:53:23;;;;;;;5.10;2.17;;;17.00;59.00;;;;;;5006571;28;21030;-50
2023/11/14 06:55:49;;;;;;;5.50;2.13;;;17.00;58.90;;;;;;5007191;28;20212;-49
2023/11/14 06:58:14;;;;;;;6.10;2.10;;;17.00;58.70;;;;;;5007666;28;20563;-46
2023/11/14 07:00:41;;;;;;;7.30;2.50;;;17.00;58.60;;;;;;5009663;28;20205;-47
2023/11/14 07:03:08;;;;;;;5.23;2.20;;;17.00;58.70;;;;;;5007941;28;20198;-46
2023/11/14 07:05:34;;;;;;;9.80;2.60;;;17.10;58.60;;;;;;5009920;28;20478;-46
2023/11/14 07:08:00;;;;;;;5.13;1.80;;;17.00;58.50;;;;;;5012130;28;20468;-49
2023/11/14 07:10:26;;;;;;;8.47;3.97;;;17.00;58.90;;;;;;5010134;28;20516;-51
2023/11/14 07:12:51;;;;;;;9.40;3.60;;;17.00;58.50;;;;;;5010856;28;20178;-47
2023/11/14 07:15:20;;;;;;;7.20;2.80;;;16.90;59.10;;;;;;5012401;28;20186;-49
2023/11/14 07:17:46;;;;;;;6.67;3.17;;;16.80;59.00;;;;;;5006691;28;20214;-49
2023/11/14 07:20:12;;;;;;;7.40;3.03;;;16.80;59.20;;;;;;5009763;28;20539;-48
2023/11/14 07:22:40;;;;;;;6.60;3.17;;;16.90;59.20;;;;;;5006095;28;20532;-52
2023/11/14 07:25:09;;;;;;;6.97;3.10;;;16.90;59.20;;;;;;5007529;28;20622;-49
2023/11/14 07:27:35;;;;;;;9.60;4.03;;;16.90;59.00;;;;;;5008857;28;20966;-46
2023/11/14 07:30:01;;;;;;;8.40;3.80;;;16.90;58.80;;;;;;5010873;28;20472;-52
2023/11/14 07:32:27;;;;;;;8.90;2.40;;;17.00;59.20;;;;;;5009491;28;20439;-49
2023/11/14 07:34:53;;;;;;;4.57;2.37;;;17.00;59.00;;;;;;5011581;28;20512;-50
2023/11/14 07:37:18;;;;;;;7.40;2.20;;;17.00;58.70;;;;;;5006633;28;20704;-51
2023/11/14 07:39:44;;;;;;;6.10;2.70;;;17.10;58.60;;;;;;5009292;28;20293;-50
2023/11/14 07:42:09;;;;;;;3.53;1.63;;;17.10;58.60;;;;;;5008133;28;20206;-51
2023/11/14 07:44:36;;;;;;;6.47;1.97;;;17.00;57.90;;;;;;5009048;28;20209;-51
2023/11/14 07:47:01;;;;;;;9.97;2.00;;;17.00;58.10;;;;;;5007849;28;20189;-51
2023/11/14 07:49:27;;;;;;;3.70;1.60;;;17.00;58.20;;;;;;5005838;28;20452;-53
2023/11/14 07:51:52;;;;;;;5.33;1.80;;;17.00;58.60;;;;;;5005216;28;20221;-53
2023/11/14 07:54:20;;;;;;;7.07;1.60;;;17.00;59.00;;;;;;5009295;28;20189;-55
2023/11/14 07:56:46;;;;;;;5.30;2.70;;;17.00;59.40;;;;;;5004232;28;20217;-52
2023/11/14 07:59:13;;;;;;;6.23;1.87;;;16.90;59.60;;;;;;5004818;28;20457;-56
2023/11/14 08:01:39;;;;;;;4.50;2.23;;;16.80;59.90;;;;;;5005430;28;20489;-53
2023/11/14 08:04:08;;;;;;;4.87;2.00;;;16.80;60.00;;;;;;5006311;28;20429;-48
2023/11/14 08:06:34;;;;;;;2.90;1.40;;;16.80;60.20;;;;;;5001329;28;20540;-48
2023/11/14 08:08:59;;;;;;;6.97;1.57;;;16.80;60.30;;;;;;5005198;28;20548;-50
2023/11/14 08:11:25;;;;;;;4.03;1.50;;;16.80;60.10;;;;;;5002806;28;20228;-48
2023/11/14 08:13:50;;;;;;;4.60;1.80;;;16.70;60.00;;;;;;5007816;28;20196;-52
2023/11/14 08:16:16;;;;;;;2.90;1.40;;;16.70;60.00;;;;;;5000902;28;20297;-54
2023/11/14 08:18:41;;;;;;;2.93;1.60;;;16.80;60.20;;;;;;5002882;28;20288;-48
2023/11/14 08:21:09;;;;;;;2.30;1.70;;;16.70;60.10;;;;;;5002119;28;20189;-54
2023/11/14 08:23:35;;;;;;;3.73;1.37;;;16.70;60.20;;;;;;5006781;28;20193;-49
2023/11/14 08:26:01;;;;;;;1.60;1.20;;;16.60;60.30;;;;;;5009428;28;21345;-53
2023/11/14 08:28:26;;;;;;;2.67;1.40;;;16.50;60.20;;;;;;5007646;28;20206;-51
2023/11/14 08:30:52;;;;;;;3.63;1.60;;;16.40;60.40;;;;;;5005760;28;20182;-48
2023/11/14 08:33:17;;;;;;;3.10;1.57;;;16.30;61.50;;;;;;5005664;28;20725;-48
2023/11/14 08:35:43;;;;;;;2.30;1.40;;;16.10;61.80;;;;;;5005913;28;20190;-48
2023/11/14 08:38:09;;;;;;;3.10;1.60;;;16.20;61.40;;;;;;5007950;28;20216;-52
2023/11/14 08:40:34;;;;;;;4.73;1.67;;;16.20;61.50;;;;;;5004162;28;20194;-48
2023/11/14 08:43:00;;;;;;;2.80;1.60;;;16.10;61.40;;;;;;5008659;28;20300;-48
2023/11/14 08:45:27;;;;;;;3.53;1.30;;;16.20;61.80;;;;;;5005944;28;20595;-51
2023/11/14 08:47:53;;;;;;;4.80;1.17;;;16.10;61.80;;;;;;5009681;28;20190;-48
2023/11/14 08:50:19;;;;;;;2.13;1.60;;;16.00;62.60;;;;;;5002125;28;20824;-51
2023/11/14 08:52:45;;;;;;;4.83;1.43;;;16.10;62.80;;;;;;5006975;28;20998;-52
2023/11/14 08:55:11;;;;;;;2.70;1.60;;;16.10;62.60;;;;;;5005474;28;20527;-53
2023/11/14 08:57:36;;;;;;;3.50;1.83;;;16.00;62.60;;;;;;5007888;28;20225;-49
2023/11/14 09:00:03;;;;;;;1.50;1.10;;;15.90;62.70;;;;;;5006997;28;20388;-48
2023/11/14 09:02:29;;;;;;;9.23;1.70;;;15.80;63.20;;;;;;5008749;28;20189;-52
2023/11/14 09:04:55;;;;;;;2.70;1.10;;;15.90;63.10;;;;;;5008053;28;20437;-56
2023/11/14 09:07:20;;;;;;;3.90;1.30;;;15.80;62.70;;;;;;5007900;28;20686;-50
2023/11/14 09:09:47;;;;;;;1.60;1.30;;;15.70;63.00;;;;;;5008800;28;20232;-50
2023/11/14 09:12:12;;;;;;;2.00;1.23;;;15.70;62.50;;;;;;5006001;28;20560;-48
2023/11/14 09:14:38;;;;;;;1.80;1.17;;;15.80;62.70;;;;;;5005807;28;20444;-52
2023/11/14 09:17:04;;;;;;;3.67;1.23;;;15.70;62.30;;;;;;5008207;28;20205;-49
2023/11/14 09:19:31;;;;;;;1.20;1.10;;;15.50;61.60;;;;;;5007737;28;20272;-54
2023/11/14 09:21:57;;;;;;;1.20;1.00;;;15.50;61.90;;;;;;5005157;28;20606;-50
2023/11/14 09:24:23;;;;;;;2.10;1.47;;;15.30;61.60;;;;;;5001979;28;20449;-51
2023/11/14 09:26:49;;;;;;;2.10;1.00;;;15.40;61.90;;;;;;5000841;28;21045;-48
2023/11/14 09:29:14;;;;;;;2.43;1.30;;;15.60;61.10;;;;;;5006707;28;20206;-48
2023/11/14 09:31:40;;;;;;;1.37;1.03;;;15.50;60.00;;;;;;5007285;28;20190;-49
2023/11/14 09:34:06;;;;;;;1.80;1.03;;;15.60;59.60;;;;;;5008249;28;20713;-53
2023/11/14 09:36:31;;;;;;;4.93;1.10;;;15.50;59.30;;;;;;5005784;28;20226;-55
2023/11/14 09:38:57;;;;;;;2.60;1.23;;;15.60;59.40;;;;;;5007516;28;20209;-54
2023/11/14 09:41:24;;;;;;;2.53;1.10;;;15.40;59.40;;;;;;4994693;28;20240;-48
2023/11/14 09:43:50;;;;;;;2.33;0.90;;;15.20;59.20;;;;;;5000872;28;20198;-52
2023/11/14 09:46:15;;;;;;;1.80;0.87;;;15.20;59.50;;;;;;4995334;28;20452;-53
2023/11/14 09:48:42;;;;;;;2.50;1.30;;;15.30;59.20;;;;;;4990565;28;20302;-51
2023/11/14 09:51:09;;;;;;;4.27;1.27;;;15.30;59.00;;;;;;5003491;28;20190;-52
2023/11/14 09:53:36;;;;;;;4.73;1.60;;;15.10;59.00;;;;;;5006880;28;20444;-49
2023/11/14 09:56:03;;;;;;;1.50;1.40;;;15.20;59.20;;;;;;5008155;28;20566;-51
2023/11/14 09:58:29;;;;;;;1.53;1.00;;;15.00;59.10;;;;;;5004188;28;20483;-50
2023/11/14 10:00:56;;;;;;;2.80;1.30;;;15.30;59.40;;;;;;5003845;28;20943;-49
2023/11/14 10:03:22;;;;;;;4.10;1.03;;;15.40;58.40;;;;;;5000062;28;20646;-52
2023/11/14 10:05:48;;;;;;;4.80;1.30;;;15.40;58.90;;;;;;5005588;28;20444;-50
2023/11/14 10:08:14;;;;;;;3.77;1.13;;;15.60;58.50;;;;;;5006441;28;20194;-54
2023/11/14 10:11:10;;;;;;;1.20;1.10;;;15.70;58.50;;;;;;5003765;28;21084;-53
2023/11/14 10:13:40;;;;;;;1.53;1.17;;;15.60;58.30;;;;;;5003963;28;20429;-48
2023/11/14 10:16:13;;;;;;;4.47;1.30;;;15.70;58.00;;;;;;5004870;28;20429;-49
2023/11/14 10:18:39;;;;;;;2.70;1.27;;;15.80;58.20;;;;;;5002993;28;20496;-55
2023/11/14 10:21:04;;;;;;;3.23;1.70;;;15.70;57.30;;;;;;5000809;28;20471;-54
2023/11/14 10:23:34;;;;;;;2.80;1.37;;;15.80;57.40;;;;;;5006863;28;20186;-49
2023/11/14 10:26:08;;;;;;;5.87;1.37;;;15.90;57.50;;;;;;5006297;28;20193;-52
2023/11/14 10:28:34;;;;;;;2.90;1.00;;;15.70;57.10;;;;;;5004458;28;20491;-53
2023/11/14 10:31:00;;;;;;;2.10;1.10;;;15.80;57.50;;;;;;5004545;28;20447;-52
2023/11/14 10:33:30;;;;;;;2.50;1.43;;;15.60;57.00;;;;;;5002674;28;20471;-49
2023/11/14 10:36:08;;;;;;;1.03;0.90;;;15.80;57.20;;;;;;5003568;28;20187;-55
2023/11/14 10:38:34;;;;;;;3.37;0.97;;;15.50;57.00;;;;;;5007301;28;20507;-51
2023/11/14 10:41:00;;;;;;;1.30;1.20;;;15.40;57.40;;;;;;5006441;28;20444;-51
2023/11/14 10:43:31;;;;;;;2.70;1.20;;;15.60;57.30;;;;;;5009078;28;20464;-49
2023/11/14 10:46:00;;;;;;;1.43;0.93;;;15.40;56.90;;;;;;5010352;28;20221;-52
2023/11/14 10:48:26;;;;;;;3.73;1.30;;;15.50;57.50;;;;;;5004570;28;20559;-53
2023/11/14 10:50:52;;;;;;;1.10;1.00;;;15.50;57.00;;;;;;5006324;28;20482;-51
2023/11/14 10:53:18;;;;;;;1.40;1.00;;;15.50;57.00;;;;;;5006349;28;20456;-48
2023/11/14 10:55:46;;;;;;;2.43;0.83;;;15.50;57.40;;;;;;5007913;28;20448;-53
2023/11/14 10:58:13;;;;;;;2.70;1.10;;;15.40;57.70;;;;;;5037695;23;20505;-49
2023/11/14 11:00:40;;;;;;;2.10;1.37;;;15.20;57.40;;;;;;5051237;28;20508;-48
2023/11/14 11:03:05;;;;;;;2.50;1.10;;;15.40;57.90;;;;;;5036487;28;20942;-49
2023/11/14 11:05:32;;;;;;;3.00;1.20;;;15.30;57.70;;;;;;5040279;28;20443;-51
2023/11/14 11:07:59;;;;;;;6.43;1.27;;;15.30;57.80;;;;;;5043789;28;20462;-49
2023/11/14 11:10:35;;;;;;;2.83;1.00;;;15.40;58.00;;;;;;5044065;28;20493;-51
2023/11/14 11:13:06;;;;;;;4.90;1.30;;;15.50;57.50;;;;;;5042842;28;20849;-48
2023/11/14 11:15:45;;;;;;;5.97;1.20;;;15.40;57.50;;;;;;5046153;28;21037;-53
2023/11/14 11:18:11;;;;;;;2.10;1.37;;;15.60;57.50;;;;;;5040486;28;20470;-51
2023/11/14 11:20:36;;;;;;;1.50;1.37;;;15.60;57.50;;;;;;5040365;28;20513;-49
2023/11/14 11:23:04;;;;;;;5.17;1.40;;;15.70;57.70;;;;;;5044793;28;20415;-49
2023/11/14 11:25:31;;;;;;;3.23;1.80;;;15.50;57.60;;;;;;5050819;28;20168;-47
2023/11/14 11:27:57;;;;;;;1.83;1.43;;;15.70;57.90;;;;;;5043755;28;20444;-47
2023/11/14 11:30:23;;;;;;;2.87;1.30;;;15.60;57.80;;;;;;5042500;28;20531;-50
2023/11/14 11:32:55;;;;;;;3.23;1.40;;;15.70;58.00;;;;;;5041191;28;20470;-49
2023/11/14 11:35:22;;;;;;;3.53;1.30;;;15.80;57.60;;;;;;5043233;28;20443;-46
2023/11/14 11:38:12;;;;;;;1.77;1.17;;;15.90;57.60;;;;;;5045006;28;20490;-53
2023/11/14 11:41:06;;;;;;;2.07;1.10;;;15.80;57.60;;;;;;5044949;28;20523;-48
2023/11/14 11:43:34;;;;;;;4.67;1.10;;;15.80;57.80;;;;;;5042815;28;20455;-49
2023/11/14 11:45:59;;;;;;;3.80;1.20;;;16.00;57.90;;;;;;5042016;28;20473;-49
2023/11/14 11:48:32;;;;;;;2.07;1.00;;;16.10;57.70;;;;;;5040397;28;20467;-48
2023/11/14 11:51:23;;;;;;;2.70;1.20;;;15.80;57.50;;;;;;5040727;28;20240;-48
2023/11/14 11:53:52;;;;;;;1.80;1.03;;;15.80;57.80;;;;;;5038580;28;20466;-49
2023/11/14 11:56:35;;;;;;;6.40;1.70;;;15.80;58.00;;;;;;5041184;28;20477;-49
2023/11/14 11:59:02;;;;;;;5.57;1.20;;;15.80;58.20;;;;;;5042049;28;20536;-48
2023/11/14 12:01:29;;;;;;;2.50;1.30;;;16.00;57.80;;;;;;5042491;28;20455;-53
2023/11/14 12:03:58;;;;;;;2.27;1.13;;;16.00;57.80;;;;;;5042469;28;20533;-51
2023/11/14 12:06:25;;;;;;;4.03;1.30;;;16.10;57.70;;;;;;5041038;28;20494;-50
2023/11/14 12:08:52;;;;;;;2.40;1.30;;;16.10;57.60;;;;;;5042183;28;20459;-53
2023/11/14 12:11:17;;;;;;;5.53;1.60;;;16.00;58.00;;;;;;5045630;28;20443;-51
2023/11/14 12:13:47;;;;;;;2.63;1.00;;;16.00;57.70;;;;;;5046758;28;20442;-51
2023/11/14 12:16:13;;;;;;;5.57;1.43;;;16.10;58.10;;;;;;5043661;28;20197;-51
2023/11/14 12:18:39;;;;;;;4.07;1.40;;;16.20;57.50;;;;;;5043542;28;20517;-52
2023/11/14 12:21:05;;;;;;;3.27;1.30;;;16.10;57.80;;;;;;5039350;28;20803;-48
2023/11/14 12:23:32;;;;;;;3.27;1.10;;;16.10;57.90;;;;;;5041339;28;20457;-50
2023/11/14 12:25:58;;;;;;;2.63;1.03;;;16.10;57.70;;;;;;5041044;28;20565;-48
2023/11/14 12:28:25;;;;;;;1.60;1.20;;;16.20;57.80;;;;;;5042038;28;20474;-52
2023/11/14 12:31:00;;;;;;;3.40;1.20;;;16.30;57.40;;;;;;5042555;28;20446;-52
2023/11/14 12:33:26;;;;;;;6.23;1.33;;;16.40;57.20;;;;;;5039114;28;20474;-50
2023/11/14 12:35:57;;;;;;;5.23;1.50;;;16.50;56.80;;;;;;5039461;28;20521;-51
2023/11/14 12:38:36;;;;;;;3.57;1.67;;;16.70;56.70;;;;;;5040632;28;20719;-48
2023/11/14 12:41:24;;;;;;;2.20;1.30;;;16.60;56.70;;;;;;5040947;28;20461;-49
2023/11/14 12:43:51;;;;;;;3.70;1.20;;;16.40;56.70;;;;;;5033481;28;20424;-50